createdAt,value
2022-08-20T00:01:42.002Z,2.28
2022-08-20T00:04:09.364Z,2.80
2022-08-20T00:06:37.396Z,2.65
2022-08-20T00:09:04.938Z,5.30
2022-08-20T00:11:33.901Z,4.00
2022-08-20T00:14:04.033Z,1.85
2022-08-20T00:16:36.579Z,3.10
2022-08-20T00:19:07.422Z,3.75
2022-08-20T00:21:36.566Z,4.68
2022-08-20T00:24:05.592Z,3.70
2022-08-20T00:26:32.997Z,2.70
2022-08-20T00:29:00.634Z,2.45
2022-08-20T00:31:28.255Z,3.17
2022-08-20T00:33:55.950Z,4.90
2022-08-20T00:36:32.380Z,3.55
2022-08-20T00:39:00.700Z,3.17
2022-08-20T00:41:28.599Z,2.65
2022-08-20T00:44:18.597Z,2.95
2022-08-20T00:46:46.975Z,3.05
2022-08-20T00:49:22.214Z,2.17
2022-08-20T00:51:53.598Z,2.15
2022-08-20T00:54:48.670Z,3.00
2022-08-20T00:59:53.640Z,2.72
2022-08-20T01:02:23.344Z,2.83
2022-08-20T01:04:57.104Z,2.78
2022-08-20T01:07:35.766Z,2.10
2022-08-20T01:10:19.487Z,2.78
2022-08-20T01:12:49.358Z,2.27
2022-08-20T01:15:30.797Z,2.63
2022-08-20T01:18:01.034Z,2.80
2022-08-20T01:20:30.115Z,3.90
2022-08-20T01:23:18.591Z,2.30
2022-08-20T01:26:06.299Z,2.95
2022-08-20T01:28:46.465Z,4.82
2022-08-20T01:31:20.877Z,2.65
2022-08-20T01:33:50.571Z,3.25
2022-08-20T01:36:22.271Z,2.78
2022-08-20T01:38:53.853Z,2.88
2022-08-20T01:41:56.867Z,1.88
2022-08-20T01:44:25.054Z,3.60
2022-08-20T01:46:57.804Z,3.00
2022-08-20T01:49:35.509Z,3.38
2022-08-20T01:52:09.542Z,2.55
2022-08-20T01:54:37.219Z,2.78
2022-08-20T01:57:11.543Z,2.45
2022-08-20T02:02:07.168Z,3.25
2022-08-20T02:04:34.975Z,1.90
2022-08-20T02:07:05.029Z,2.05
2022-08-20T02:09:37.740Z,2.28
2022-08-20T02:12:06.776Z,2.05
2022-08-20T02:14:34.562Z,2.35
2022-08-20T02:17:02.078Z,2.55
2022-08-20T02:19:35.414Z,2.65
2022-08-20T02:22:25.779Z,2.47
2022-08-20T02:24:53.565Z,2.10
2022-08-20T02:27:23.787Z,2.92
2022-08-20T02:29:52.334Z,2.33
2022-08-20T02:32:25.098Z,2.28
2022-08-20T02:35:03.797Z,2.40
2022-08-20T02:37:31.401Z,2.85
2022-08-20T02:39:58.857Z,1.65
2022-08-20T02:42:26.626Z,1.70
2022-08-20T02:44:54.338Z,1.90
2022-08-20T02:47:21.824Z,1.55
2022-08-20T02:49:49.456Z,2.95
2022-08-20T02:52:16.736Z,1.75
2022-08-20T02:54:44.593Z,2.20
2022-08-20T02:57:22.217Z,3.70
2022-08-20T02:59:52.340Z,2.33
2022-08-20T03:02:19.746Z,2.40
2022-08-20T03:04:47.062Z,2.80
2022-08-20T03:07:14.733Z,2.75
2022-08-20T03:09:42.286Z,3.20
2022-08-20T03:12:09.920Z,2.42
2022-08-20T03:14:37.908Z,2.00
2022-08-20T03:17:05.457Z,2.60
2022-08-20T03:19:32.841Z,3.03
2022-08-20T03:22:00.283Z,2.15
2022-08-20T03:24:27.612Z,2.05
2022-08-20T03:26:54.862Z,2.78
2022-08-20T03:29:22.279Z,1.63
2022-08-20T03:31:49.667Z,2.42
2022-08-20T03:34:16.991Z,3.10
2022-08-20T03:36:44.331Z,2.95
2022-08-20T03:39:13.279Z,1.70
2022-08-20T03:41:40.774Z,2.80
2022-08-20T03:44:08.243Z,3.33
2022-08-20T03:46:36.005Z,1.60
2022-08-20T03:49:03.760Z,2.25
2022-08-20T03:51:43.479Z,2.42
2022-08-20T03:54:19.745Z,2.83
2022-08-20T03:56:47.317Z,4.18
2022-08-20T03:59:14.668Z,1.83
2022-08-20T04:01:46.321Z,1.80
2022-08-20T04:04:14.852Z,1.45
2022-08-20T04:06:43.744Z,2.58
2022-08-20T04:09:11.811Z,2.40
2022-08-20T04:11:40.431Z,2.03
2022-08-20T04:14:09.206Z,2.85
2022-08-20T04:16:40.222Z,3.35
2022-08-20T04:19:07.848Z,1.73
2022-08-20T04:21:36.593Z,2.17
2022-08-20T04:24:05.471Z,2.10
2022-08-20T04:26:35.297Z,2.63
2022-08-20T04:29:03.117Z,2.45
2022-08-20T04:31:33.644Z,2.25
2022-08-20T04:34:08.030Z,1.70
2022-08-20T04:36:36.270Z,2.38
2022-08-20T04:39:04.107Z,2.78
2022-08-20T04:41:31.574Z,3.05
2022-08-20T04:43:59.169Z,2.08
2022-08-20T04:46:28.768Z,3.22
2022-08-20T04:48:57.033Z,2.92
2022-08-20T04:51:24.974Z,2.60
2022-08-20T04:53:54.273Z,2.55
2022-08-20T04:56:31.021Z,1.83
2022-08-20T04:59:00.916Z,1.95
2022-08-20T05:01:28.455Z,2.45
2022-08-20T05:03:57.202Z,2.20
2022-08-20T05:06:30.316Z,2.88
2022-08-20T05:08:59.077Z,1.48
2022-08-20T05:11:34.538Z,2.08
2022-08-20T05:14:05.432Z,3.33
2022-08-20T05:16:37.878Z,2.88
2022-08-20T05:19:12.478Z,2.78
2022-08-20T05:24:08.352Z,2.47
2022-08-20T05:26:35.983Z,2.05
2022-08-20T05:29:05.315Z,1.80
2022-08-20T05:31:33.936Z,2.95
2022-08-20T05:34:03.804Z,1.60
2022-08-20T05:36:31.177Z,2.38
2022-08-20T05:38:58.586Z,1.77
2022-08-20T05:41:27.639Z,2.15
2022-08-20T05:43:57.818Z,3.30
2022-08-20T05:46:25.384Z,3.05
2022-08-20T05:48:52.701Z,1.65
2022-08-20T05:51:20.100Z,2.15
2022-08-20T05:53:47.622Z,2.95
2022-08-20T05:56:14.965Z,2.40
2022-08-20T05:58:42.234Z,2.17
2022-08-20T06:01:09.729Z,2.50
2022-08-20T06:03:57.302Z,2.65
2022-08-20T06:06:45.047Z,3.38
2022-08-20T06:09:12.080Z,3.72
2022-08-20T06:11:39.396Z,2.88
2022-08-20T06:14:06.799Z,2.95
2022-08-20T06:16:34.405Z,2.30
2022-08-20T06:19:05.857Z,4.00
2022-08-20T06:21:33.210Z,3.10
2022-08-20T06:24:01.482Z,3.20
2022-08-20T06:26:30.896Z,3.90
2022-08-20T06:29:00.328Z,3.42
2022-08-20T06:31:27.996Z,2.15
2022-08-20T06:33:55.888Z,2.80
2022-08-20T06:36:24.531Z,2.92
2022-08-20T06:38:51.927Z,3.10
2022-08-20T06:41:19.242Z,3.08
2022-08-20T06:43:46.590Z,2.72
2022-08-20T06:46:14.606Z,3.53
2022-08-20T06:48:42.001Z,4.28
2022-08-20T06:51:10.232Z,2.63
2022-08-20T06:53:37.664Z,3.63
2022-08-20T06:56:05.559Z,3.10
2022-08-20T06:58:36.718Z,3.42
2022-08-20T07:01:10.025Z,3.00
2022-08-20T07:03:39.066Z,2.95
2022-08-20T07:06:12.910Z,3.22
2022-08-20T07:08:42.618Z,2.75
2022-08-20T07:11:10.809Z,5.13
2022-08-20T07:13:38.123Z,3.25
2022-08-20T07:16:06.103Z,4.10
2022-08-20T07:18:33.588Z,2.88
2022-08-20T07:21:01.129Z,2.92
2022-08-20T07:23:29.273Z,3.00
2022-08-20T07:25:56.588Z,4.13
2022-08-20T07:28:25.399Z,4.20
2022-08-20T07:31:13.869Z,3.72
2022-08-20T07:33:44.622Z,4.70
2022-08-20T07:36:12.835Z,3.00
2022-08-20T07:38:40.205Z,9.07
2022-08-20T07:41:13.138Z,8.02
2022-08-20T07:43:41.205Z,7.95
2022-08-20T07:46:09.325Z,12.77
2022-08-20T07:48:41.832Z,9.15
2022-08-20T07:51:11.110Z,6.22
2022-08-20T07:53:40.400Z,5.97
2022-08-20T07:56:13.329Z,8.27
2022-08-20T07:58:49.836Z,4.93
2022-08-20T08:01:28.505Z,5.03
2022-08-20T08:03:57.516Z,9.43
2022-08-20T08:06:28.746Z,9.52
2022-08-20T08:09:03.595Z,13.25
2022-08-20T08:11:34.779Z,11.48
2022-08-20T08:14:05.378Z,16.08
2022-08-20T08:16:34.586Z,12.23
2022-08-20T08:19:04.948Z,10.35
2022-08-20T08:21:32.569Z,5.85
2022-08-20T08:24:00.505Z,8.60
2022-08-20T08:26:28.914Z,15.30
2022-08-20T08:28:58.240Z,9.73
2022-08-20T08:31:26.150Z,8.27
2022-08-20T08:33:53.732Z,8.65
2022-08-20T08:36:21.240Z,13.65
2022-08-20T08:38:48.596Z,13.50
2022-08-20T08:41:34.017Z,7.95
2022-08-20T08:44:09.444Z,6.90
2022-08-20T08:46:42.516Z,9.30
2022-08-20T08:49:18.031Z,10.32
2022-08-20T08:51:57.133Z,7.90
2022-08-20T08:54:28.585Z,9.68
2022-08-20T08:56:56.003Z,7.13
2022-08-20T08:59:23.791Z,15.18
2022-08-20T09:01:57.135Z,9.68
2022-08-20T09:04:35.152Z,15.48
2022-08-20T09:07:07.076Z,14.50
2022-08-20T09:09:40.601Z,12.88
2022-08-20T09:12:27.791Z,19.50
2022-08-20T09:14:55.221Z,11.40
2022-08-20T09:17:23.935Z,16.55
2022-08-20T09:19:52.290Z,9.93
2022-08-20T09:22:22.634Z,12.60
2022-08-20T09:24:50.993Z,12.82
2022-08-20T09:27:19.045Z,10.18
2022-08-20T09:29:48.400Z,14.82
2022-08-20T09:32:23.372Z,12.30
2022-08-20T09:34:56.361Z,12.20
2022-08-20T09:37:25.860Z,10.15
2022-08-20T09:39:53.390Z,12.35
2022-08-20T09:42:24.399Z,12.20
2022-08-20T09:44:52.026Z,12.88
2022-08-20T09:47:19.662Z,12.82
2022-08-20T09:49:47.268Z,9.88
2022-08-20T09:52:27.036Z,10.68
2022-08-20T09:55:01.692Z,7.30
2022-08-20T09:57:31.060Z,11.88
2022-08-20T10:00:06.807Z,10.63
2022-08-20T10:02:34.093Z,9.63
2022-08-20T10:05:01.351Z,7.15
2022-08-20T10:07:28.571Z,7.00
2022-08-20T10:09:55.866Z,8.68
2022-08-20T10:12:23.120Z,9.43
2022-08-20T10:14:50.375Z,9.98
2022-08-20T10:17:17.648Z,10.63
2022-08-20T10:19:44.891Z,6.78
2022-08-20T10:22:12.175Z,5.40
2022-08-20T10:24:39.515Z,7.25
2022-08-20T10:27:07.246Z,9.45
2022-08-20T10:29:34.589Z,12.65
2022-08-20T10:32:14.996Z,9.18
2022-08-20T10:34:44.148Z,11.05
2022-08-20T10:37:16.151Z,9.00
2022-08-20T10:39:43.833Z,6.22
2022-08-20T10:42:11.357Z,13.88
2022-08-20T10:44:39.469Z,8.43
2022-08-20T10:47:16.970Z,12.32
2022-08-20T10:49:44.272Z,10.20
2022-08-20T10:52:11.764Z,5.75
2022-08-20T10:54:42.335Z,7.65
2022-08-20T10:57:19.045Z,8.35
2022-08-20T10:59:48.339Z,6.30
2022-08-20T11:02:16.110Z,7.30
2022-08-20T11:04:44.639Z,14.30
2022-08-20T11:07:18.298Z,10.32
2022-08-20T11:09:47.616Z,7.68
2022-08-20T11:12:16.278Z,8.68
2022-08-20T11:14:44.073Z,7.93
2022-08-20T11:17:12.167Z,13.23
2022-08-20T11:19:42.050Z,11.18
2022-08-20T11:22:10.338Z,8.55
2022-08-20T11:24:38.316Z,12.77
2022-08-20T11:27:08.238Z,13.07
2022-08-20T11:29:39.342Z,11.25
2022-08-20T11:32:06.778Z,14.48
2022-08-20T11:34:34.508Z,9.30
2022-08-20T11:37:01.820Z,16.75
2022-08-20T11:39:29.218Z,11.10
2022-08-20T11:41:56.666Z,10.27
2022-08-20T11:44:23.998Z,8.77
2022-08-20T11:46:51.503Z,9.30
2022-08-20T11:49:18.851Z,11.30
2022-08-20T11:51:50.082Z,8.48
2022-08-20T11:54:18.048Z,9.82
2022-08-20T11:56:46.185Z,9.30
2022-08-20T11:59:14.229Z,7.20
2022-08-20T12:01:41.503Z,6.85
2022-08-20T12:04:17.332Z,5.53
2022-08-20T12:06:44.582Z,5.75
2022-08-20T12:09:11.952Z,8.07
2022-08-20T12:11:39.279Z,12.25
2022-08-20T12:14:06.620Z,11.43
2022-08-20T12:16:33.964Z,7.57
2022-08-20T12:19:01.259Z,9.27
2022-08-20T12:21:32.006Z,7.65
2022-08-20T12:23:59.804Z,8.25
2022-08-20T12:26:27.285Z,10.18
2022-08-20T12:28:55.882Z,7.25
2022-08-20T12:31:23.198Z,7.22
2022-08-20T12:33:50.496Z,13.95
2022-08-20T12:36:18.136Z,6.07
2022-08-20T12:38:45.470Z,8.38
2022-08-20T12:41:12.806Z,8.27
2022-08-20T12:43:40.072Z,10.18
2022-08-20T12:46:07.376Z,9.70
2022-08-20T12:48:34.770Z,5.57
2022-08-20T12:51:02.096Z,11.50
2022-08-20T12:53:29.474Z,8.13
2022-08-20T12:55:56.838Z,12.45
2022-08-20T12:58:24.701Z,26.00
2022-08-20T13:00:52.233Z,14.95
2022-08-20T13:03:20.872Z,22.38
2022-08-20T13:05:49.338Z,20.73
2022-08-20T13:08:19.100Z,31.08
2022-08-20T13:10:46.649Z,26.27
2022-08-20T13:13:20.105Z,26.17
2022-08-20T13:15:50.043Z,23.55
2022-08-20T13:18:17.439Z,18.15
2022-08-20T13:20:44.862Z,15.05
2022-08-20T13:23:12.184Z,14.30
2022-08-20T13:25:39.485Z,9.80
2022-08-20T13:28:07.029Z,11.63
2022-08-20T13:30:38.545Z,10.30
2022-08-20T13:33:05.949Z,7.22
2022-08-20T13:35:33.395Z,15.27
2022-08-20T13:38:00.733Z,22.70
2022-08-20T13:40:28.316Z,20.05
2022-08-20T13:42:55.713Z,19.08
2022-08-20T13:45:23.208Z,9.63
2022-08-20T13:47:54.217Z,9.85
2022-08-20T13:50:23.986Z,24.48
2022-08-20T13:52:51.356Z,18.48
2022-08-20T13:55:21.835Z,22.38
2022-08-20T13:57:50.322Z,16.30
2022-08-20T14:00:31.018Z,9.45
2022-08-20T14:03:02.603Z,12.23
2022-08-20T14:05:30.648Z,11.00
2022-08-20T14:08:15.624Z,12.55
2022-08-20T14:10:44.284Z,13.75
2022-08-20T14:13:15.577Z,20.25
2022-08-20T14:15:45.641Z,19.70
2022-08-20T14:18:14.528Z,19.60
2022-08-20T14:20:42.890Z,22.40
2022-08-20T14:23:12.977Z,20.27
2022-08-20T14:25:40.641Z,19.50
2022-08-20T14:28:18.106Z,16.15
2022-08-20T14:30:47.349Z,22.13
2022-08-20T14:33:21.338Z,18.30
2022-08-20T14:35:48.648Z,11.68
2022-08-20T14:38:15.958Z,11.52
2022-08-20T14:40:43.243Z,9.25
2022-08-20T14:43:10.538Z,4.75
2022-08-20T14:45:38.167Z,7.78
2022-08-20T14:48:08.518Z,10.60
2022-08-20T14:50:37.097Z,13.48
2022-08-20T14:53:05.136Z,148.48
2022-08-20T14:55:37.199Z,120.28
2022-08-20T14:58:12.755Z,97.25
2022-08-20T15:00:41.224Z,80.75
2022-08-20T15:03:08.674Z,64.95
2022-08-20T15:05:39.505Z,72.75
2022-08-20T15:08:08.002Z,56.85
2022-08-20T15:10:38.813Z,47.30
2022-08-20T15:13:06.204Z,45.28
2022-08-20T15:15:33.545Z,36.35
2022-08-20T15:18:01.076Z,35.90
2022-08-20T15:20:31.859Z,29.70
2022-08-20T15:23:00.034Z,29.58
2022-08-20T15:25:36.411Z,23.60
2022-08-20T15:28:08.626Z,21.25
2022-08-20T15:30:37.018Z,24.85
2022-08-20T15:33:05.101Z,19.55
2022-08-20T15:35:33.767Z,19.70
2022-08-20T15:38:01.237Z,29.35
2022-08-20T15:40:32.150Z,19.92
2022-08-20T15:43:03.313Z,14.95
2022-08-20T15:45:31.820Z,11.65
2022-08-20T15:48:13.935Z,8.07
2022-08-20T15:50:54.853Z,10.13
2022-08-20T15:53:31.862Z,6.18
2022-08-20T15:56:11.882Z,9.93
2022-08-20T15:59:21.036Z,10.88
2022-08-20T16:02:25.883Z,7.68
2022-08-20T16:05:29.827Z,6.07
2022-08-20T16:08:06.176Z,6.82
2022-08-20T16:11:10.073Z,4.70
2022-08-20T16:14:08.237Z,7.85
2022-08-20T16:16:49.438Z,7.18
2022-08-20T16:19:23.709Z,7.28
2022-08-20T16:24:21.328Z,10.10
2022-08-20T16:27:07.274Z,7.93
2022-08-20T16:29:55.536Z,6.22
2022-08-20T16:32:33.440Z,5.15
2022-08-20T16:35:47.007Z,4.75
2022-08-20T16:38:23.496Z,8.68
2022-08-20T16:41:06.835Z,17.83
2022-08-20T16:43:53.914Z,15.73
2022-08-20T16:46:26.539Z,11.55
2022-08-20T16:49:00.360Z,9.75
2022-08-20T16:51:56.698Z,6.18
2022-08-20T16:54:30.061Z,9.98
2022-08-20T16:59:28.232Z,14.60
2022-08-20T17:02:07.290Z,45.13
2022-08-20T17:04:53.279Z,29.42
2022-08-20T17:07:43.318Z,33.72
2022-08-20T17:10:27.275Z,25.10
2022-08-20T17:12:59.921Z,34.53
2022-08-20T17:15:33.241Z,44.67
2022-08-20T17:18:33.910Z,35.33
2022-08-20T17:21:26.026Z,23.73
2022-08-20T17:24:10.246Z,28.02
2022-08-20T17:26:48.706Z,21.98
2022-08-20T17:29:23.575Z,18.15
2022-08-20T17:32:11.519Z,17.08
2022-08-20T17:34:48.890Z,31.25
2022-08-20T17:37:28.938Z,30.38
2022-08-20T17:42:48.703Z,35.15
2022-08-20T17:45:30.465Z,319.45
2022-08-20T17:47:59.939Z,184.90
2022-08-20T17:50:33.006Z,120.55
2022-08-20T17:53:10.688Z,71.70
2022-08-20T17:55:40.768Z,48.70
2022-08-20T17:58:13.368Z,59.40
2022-08-20T18:00:41.833Z,53.42
2022-08-20T18:03:19.410Z,57.30
2022-08-20T18:05:56.927Z,52.05
2022-08-20T18:08:34.633Z,36.28
2022-08-20T18:11:15.157Z,21.92
2022-08-20T18:13:51.413Z,19.63
2022-08-20T18:16:44.831Z,21.40
2022-08-20T18:19:33.350Z,33.83
2022-08-20T18:22:13.342Z,18.30
2022-08-20T18:25:09.839Z,16.15
2022-08-20T18:27:42.359Z,13.48
2022-08-20T18:30:21.599Z,13.48
2022-08-20T18:32:59.883Z,9.07
2022-08-20T18:35:45.805Z,6.32
2022-08-20T18:38:22.532Z,6.53
2022-08-20T18:40:54.901Z,4.57
2022-08-20T18:43:31.360Z,4.75
2022-08-20T18:46:11.662Z,6.32
2022-08-20T18:48:49.819Z,4.28
2022-08-20T18:51:23.820Z,6.32
2022-08-20T18:53:52.023Z,9.55
2022-08-20T18:56:32.108Z,5.72
2022-08-20T18:59:01.827Z,5.15
2022-08-20T19:01:31.835Z,148.98
2022-08-20T19:03:59.296Z,165.48
2022-08-20T19:06:44.382Z,102.68
2022-08-20T19:09:28.660Z,48.38
2022-08-20T19:12:01.876Z,36.25
2022-08-20T19:14:55.520Z,43.38
2022-08-20T19:18:09.456Z,26.60
2022-08-20T19:20:41.346Z,21.15
2022-08-20T19:23:15.988Z,11.07
2022-08-20T19:25:55.606Z,12.98
2022-08-20T19:28:23.123Z,14.75
2022-08-20T19:30:50.886Z,13.15
2022-08-20T19:33:29.604Z,12.57
2022-08-20T19:36:17.344Z,8.10
2022-08-20T19:38:49.811Z,22.83
2022-08-20T19:41:31.114Z,18.90
2022-08-20T19:44:02.414Z,23.80
2022-08-20T19:46:38.992Z,40.50
2022-08-20T19:49:43.713Z,32.30
2022-08-20T19:52:42.844Z,32.25
2022-08-20T19:55:24.276Z,22.55
2022-08-20T19:58:00.760Z,27.65
2022-08-20T20:00:39.731Z,20.88
2022-08-20T20:03:28.949Z,27.60
2022-08-20T20:05:59.403Z,22.17
2022-08-20T20:08:37.452Z,14.40
2022-08-20T20:11:05.871Z,15.20
2022-08-20T20:13:34.402Z,23.75
2022-08-20T20:16:08.040Z,17.35
2022-08-20T20:18:40.225Z,15.38
2022-08-20T20:21:23.013Z,13.45
2022-08-20T20:24:00.776Z,12.25
2022-08-20T20:26:35.278Z,14.50
2022-08-20T20:29:16.485Z,14.00
2022-08-20T20:31:59.278Z,11.88
2022-08-20T20:34:55.399Z,12.05
2022-08-20T20:37:49.600Z,11.85
2022-08-20T20:40:33.935Z,9.65
2022-08-20T20:43:10.446Z,12.82
2022-08-20T20:45:43.268Z,11.55
2022-08-20T20:48:24.815Z,15.07
2022-08-20T20:50:56.426Z,6.68
2022-08-20T20:53:51.188Z,6.28
2022-08-20T20:56:34.696Z,11.00
2022-08-20T20:59:06.631Z,8.75
2022-08-20T21:01:48.390Z,9.02
2022-08-20T21:04:22.025Z,6.55
2022-08-20T21:06:50.951Z,9.18
2022-08-20T21:09:19.157Z,8.10
2022-08-20T21:11:46.986Z,9.75
2022-08-20T21:14:14.586Z,6.68
2022-08-20T21:16:42.177Z,5.57
2022-08-20T21:19:10.486Z,4.93
2022-08-20T21:21:39.518Z,6.53
2022-08-20T21:24:07.765Z,5.82
2022-08-20T21:26:35.988Z,4.53
2022-08-20T21:29:05.405Z,6.13
2022-08-20T21:31:37.813Z,7.07
2022-08-20T21:34:12.017Z,4.88
2022-08-20T21:36:39.696Z,4.10
2022-08-20T21:39:07.197Z,4.53
2022-08-20T21:41:34.734Z,3.33
2022-08-20T21:44:25.597Z,6.90
2022-08-20T21:46:55.942Z,5.80
2022-08-20T21:49:24.676Z,3.42
2022-08-20T21:51:52.708Z,4.40
2022-08-20T21:54:21.318Z,6.55
2022-08-20T21:57:02.670Z,3.63
2022-08-20T21:59:30.889Z,6.13
2022-08-20T22:02:01.094Z,4.43
2022-08-20T22:04:32.315Z,4.72
2022-08-20T22:07:03.678Z,5.80
2022-08-20T22:09:32.977Z,4.75
2022-08-20T22:12:03.777Z,5.50
2022-08-20T22:14:31.391Z,4.80
2022-08-20T22:16:59.106Z,4.75
2022-08-20T22:19:26.439Z,5.05
2022-08-20T22:21:54.709Z,4.57
2022-08-20T22:24:23.217Z,5.38
2022-08-20T22:26:50.618Z,3.75
2022-08-20T22:29:17.948Z,6.57
2022-08-20T22:31:45.662Z,6.22
2022-08-20T22:34:15.168Z,4.68
2022-08-20T22:36:42.592Z,4.70
2022-08-20T22:39:11.067Z,5.93
2022-08-20T22:41:38.676Z,5.75
2022-08-20T22:44:06.092Z,5.82
2022-08-20T22:46:44.944Z,5.47
2022-08-20T22:49:18.848Z,4.57
2022-08-20T22:51:46.630Z,5.75
2022-08-20T22:54:18.672Z,4.55
2022-08-20T22:56:45.967Z,4.20
2022-08-20T22:59:13.309Z,5.35
2022-08-20T23:01:44.892Z,4.75
2022-08-20T23:04:29.389Z,6.88
2022-08-20T23:06:57.974Z,6.50
2022-08-20T23:09:25.856Z,5.43
2022-08-20T23:11:53.848Z,6.13
2022-08-20T23:14:21.585Z,5.75
2022-08-20T23:16:58.197Z,4.95
2022-08-20T23:19:25.765Z,5.38
2022-08-20T23:21:53.469Z,5.18
2022-08-20T23:24:21.138Z,5.95
2022-08-20T23:26:52.408Z,5.47
2022-08-20T23:29:22.442Z,5.13
2022-08-20T23:31:54.739Z,4.93
2022-08-20T23:34:22.243Z,6.22
2022-08-20T23:36:50.248Z,5.93
2022-08-20T23:39:17.629Z,6.25
2022-08-20T23:41:47.484Z,5.47
2022-08-20T23:44:25.506Z,4.32
2022-08-20T23:46:58.448Z,5.97
2022-08-20T23:49:27.092Z,5.93
2022-08-20T23:51:54.904Z,6.35
2022-08-20T23:54:22.575Z,6.07
2022-08-20T23:56:50.088Z,5.18
2022-08-20T23:59:17.696Z,7.10
